Time;durP1;ratioP1;P1;durP2;ratioP2;P2;SDS_P1;SDS_P2;PMS_P1;PMS_P2;Temp;Humidity;BMP_temperature;BMP_pressure;BME280_temperature;BME280_humidity;BME280_pressure;Samples;Min_cycle;Max_cycle;Signal;HPM_P1;HPM_P2
2021/05/11 00:01:16;;;;;;;8.07;3.45;;;;;;;16.34;63.91;100811.03;5000056;28;20077;-74
2021/05/11 00:03:43;;;;;;;11.40;3.42;;;;;;;16.32;64.17;100805.13;4997381;28;20101;-74
2021/05/11 00:06:10;;;;;;;5.90;2.90;;;;;;;16.31;63.97;100806.94;4997873;28;20053;-74
2021/05/11 00:08:37;;;;;;;7.40;3.20;;;;;;;16.27;64.04;100800.38;5000984;28;20153;-74
2021/05/11 00:11:03;;;;;;;7.63;2.80;;;;;;;16.28;64.30;100802.00;4995571;28;20050;-74
2021/05/11 00:13:29;;;;;;;7.15;3.03;;;;;;;16.29;64.47;100801.03;5000029;28;20054;-75
2021/05/11 00:15:55;;;;;;;9.48;3.30;;;;;;;16.27;64.30;100804.84;4997737;28;20425;-74
2021/05/11 00:18:21;;;;;;;7.75;3.08;;;;;;;16.21;64.82;100790.53;4994260;28;20061;-74
2021/05/11 00:20:47;;;;;;;10.05;3.17;;;;;;;16.17;65.05;100794.53;5005421;28;20103;-74
2021/05/11 00:23:14;;;;;;;8.00;3.40;;;;;;;16.16;64.10;100795.56;4993023;28;20050;-74
2021/05/11 00:25:39;;;;;;;8.48;2.88;;;;;;;16.04;65.53;100791.75;5002168;28;20060;-75
2021/05/11 00:28:06;;;;;;;7.78;3.13;;;;;;;16.05;65.09;100796.81;4989849;28;20061;-75
2021/05/11 00:30:31;;;;;;;10.70;3.13;;;;;;;16.03;65.16;100788.25;4998358;28;20057;-74
2021/05/11 00:32:58;;;;;;;9.15;3.17;;;;;;;16.01;65.71;100793.75;4992603;28;20508;-75
2021/05/11 00:35:24;;;;;;;8.55;3.15;;;;;;;15.98;65.88;100799.38;5003634;28;20135;-75
2021/05/11 00:37:50;;;;;;;7.10;3.25;;;;;;;15.97;65.04;100804.84;4999664;28;20143;-75
2021/05/11 00:40:15;;;;;;;9.52;3.60;;;;;;;15.99;64.90;100801.03;4995302;28;20050;-75
2021/05/11 00:42:41;;;;;;;10.07;3.30;;;;;;;16.00;65.27;100793.91;4997796;28;20060;-75
2021/05/11 00:45:08;;;;;;;7.00;3.00;;;;;;;15.93;65.71;100790.34;4995644;28;20145;-75
2021/05/11 00:47:34;;;;;;;6.30;3.00;;;;;;;15.97;65.86;100795.09;5000756;28;20058;-74
2021/05/11 00:50:00;;;;;;;8.43;3.10;;;;;;;15.90;65.20;100796.03;4993846;28;20812;-75
2021/05/11 00:52:28;;;;;;;9.23;3.72;;;;;;;15.84;65.57;100797.56;4996533;28;20049;-75
2021/05/11 00:54:54;;;;;;;9.10;3.28;;;;;;;15.80;65.26;100791.81;4998292;28;20100;-76
2021/05/11 00:57:20;;;;;;;7.95;3.53;;;;;;;15.80;65.12;100804.22;4990902;28;20053;-75
2021/05/11 00:59:48;;;;;;;6.78;3.10;;;;;;;15.80;64.91;100802.41;5005658;28;20488;-75
2021/05/11 01:02:14;;;;;;;9.93;3.42;;;;;;;15.77;65.04;100807.22;4994675;28;20085;-74
2021/05/11 01:04:40;;;;;;;8.43;3.65;;;;;;;15.78;64.46;100804.41;5001188;28;20152;-75
2021/05/11 01:07:07;;;;;;;8.20;3.55;;;;;;;15.71;65.45;100806.09;4990944;28;20141;-75
2021/05/11 01:09:33;;;;;;;10.05;2.97;;;;;;;15.72;65.69;100810.38;4986979;28;20655;-75
2021/05/11 01:11:59;;;;;;;6.70;3.25;;;;;;;15.66;65.19;100807.63;4996992;28;20449;-75
2021/05/11 01:14:26;;;;;;;11.40;3.65;;;;;;;15.63;65.34;100811.47;4997930;28;20239;-75
2021/05/11 01:16:58;;;;;;;9.57;3.40;;;;;;;15.63;65.01;100812.28;4998210;28;20481;-75
2021/05/11 01:19:45;;;;;;;9.43;3.40;;;;;;;15.63;65.59;100822.03;4995772;28;20531;-75
2021/05/11 01:25:24;;;;;;;9.10;3.72;;;;;;;15.61;66.41;100821.38;4990515;28;20077;-75
2021/05/11 01:28:32;;;;;;;11.77;3.88;;;;;;;15.65;66.65;100825.31;5002993;28;20049;-74
2021/05/11 01:49:33;;;;;;;8.70;4.18;;;;;;;15.55;68.71;100795.69;4998367;28;20975;-74
2021/05/11 01:52:28;;;;;;;9.23;4.78;;;;;;;15.51;68.59;100784.63;4995579;28;20387;-75
2021/05/11 01:55:13;;;;;;;13.25;4.63;;;;;;;15.46;68.89;100779.06;4989266;28;20100;-75
2021/05/11 02:25:09;;;;;;;15.52;4.53;;;;;;;15.27;68.77;100790.13;4999367;28;20050;-74
2021/05/11 02:27:36;;;;;;;11.73;5.20;;;;;;;15.25;68.99;100800.03;4995453;28;20104;-74
2021/05/11 02:30:05;;;;;;;13.25;4.97;;;;;;;15.25;69.15;100802.69;5002200;28;20609;-74
2021/05/11 02:32:31;;;;;;;10.57;4.82;;;;;;;15.18;69.26;100799.94;4994479;28;20050;-74
2021/05/11 02:34:57;;;;;;;8.88;5.00;;;;;;;15.14;69.60;100801.31;4998595;28;20078;-74
2021/05/11 02:37:23;;;;;;;15.68;5.20;;;;;;;15.16;69.83;100802.75;5006200;28;20144;-74
2021/05/11 02:39:49;;;;;;;11.52;5.03;;;;;;;15.13;69.40;100795.19;4998758;28;20124;-74
2021/05/11 02:42:15;;;;;;;10.60;4.80;;;;;;;15.15;69.73;100789.72;4996917;28;20083;-74
2021/05/11 02:44:46;;;;;;;9.80;5.10;;;;;;;15.17;70.25;100793.00;4997061;28;20053;-74
2021/05/11 02:47:12;;;;;;;11.38;5.30;;;;;;;15.17;70.14;100791.22;4998626;28;20120;-74
2021/05/11 02:49:44;;;;;;;10.10;6.00;;;;;;;15.17;70.04;100790.38;4995633;28;20078;-74
2021/05/11 02:52:11;;;;;;;10.57;5.68;;;;;;;15.11;69.93;100784.00;5002714;28;20525;-74
2021/05/11 02:54:37;;;;;;;11.60;5.85;;;;;;;15.13;70.08;100789.91;5003268;28;20050;-74
2021/05/11 02:57:04;;;;;;;15.05;7.93;;;;;;;15.08;70.15;100794.91;4998002;28;20054;-74
2021/05/11 02:59:30;;;;;;;16.60;7.65;;;;;;;15.10;70.18;100787.63;5000743;28;20493;-74
2021/05/11 03:01:56;;;;;;;19.23;7.93;;;;;;;15.09;70.35;100787.78;4992709;28;20061;-74
2021/05/11 03:04:23;;;;;;;19.25;8.18;;;;;;;15.03;70.54;100790.16;5004619;28;20057;-74
2021/05/11 03:06:51;;;;;;;19.25;8.57;;;;;;;15.05;70.42;100782.03;4995532;28;20057;-75
2021/05/11 03:09:18;;;;;;;;;;;;;;;15.04;70.32;100793.63;5004413;28;20111;-75
2021/05/11 03:11:44;;;;;;;16.65;8.10;;;;;;;14.98;70.13;100786.41;5000603;28;19925;-74
2021/05/11 03:14:10;;;;;;;17.75;8.25;;;;;;;15.01;70.17;100786.88;4990714;28;20535;-74
2021/05/11 03:16:36;;;;;;;12.80;8.07;;;;;;;15.05;70.70;100792.59;4994305;28;20049;-74
2021/05/11 03:19:03;;;;;;;13.70;7.72;;;;;;;15.03;70.55;100790.16;5001752;28;20049;-75
2021/05/11 03:21:29;;;;;;;16.15;7.93;;;;;;;15.06;70.63;100794.25;5000580;28;20890;-74
2021/05/11 03:23:55;;;;;;;16.35;8.32;;;;;;;15.03;70.28;100799.88;4997880;28;20053;-74
2021/05/11 03:26:21;;;;;;;11.98;7.70;;;;;;;14.99;70.70;100795.94;5002659;28;20050;-74
2021/05/11 03:28:47;;;;;;;18.13;7.78;;;;;;;14.95;70.91;100792.84;4997510;28;20156;-74
2021/05/11 03:31:13;;;;;;;14.65;7.70;;;;;;;14.88;71.24;100788.41;4995733;28;20093;-74
2021/05/11 03:33:39;;;;;;;15.65;8.40;;;;;;;14.86;70.76;100787.78;5003513;28;20060;-74
2021/05/11 03:36:05;;;;;;;16.30;8.30;;;;;;;14.79;71.42;100779.75;4987845;28;20669;-74
2021/05/11 03:38:31;;;;;;;13.60;7.95;;;;;;;14.75;71.28;100781.91;5003386;28;20127;-74
2021/05/11 03:40:57;;;;;;;12.48;7.90;;;;;;;14.72;71.78;100787.56;4988529;28;20050;-74
2021/05/11 03:43:49;;;;;;;16.05;8.95;;;;;;;14.68;71.77;100786.25;4999392;28;20064;-74
2021/05/11 03:46:14;;;;;;;15.98;8.30;;;;;;;14.70;71.77;100791.34;4991119;28;20596;-74
2021/05/11 03:48:41;;;;;;;14.90;8.63;;;;;;;14.68;71.95;100785.41;5003523;28;20516;-75
2021/05/11 03:51:07;;;;;;;17.08;8.60;;;;;;;14.67;71.88;100797.00;5002192;28;20790;-75
2021/05/11 03:53:34;;;;;;;15.60;8.07;;;;;;;14.63;72.33;100799.16;4995359;28;20057;-74
2021/05/11 03:56:01;;;;;;;16.65;9.18;;;;;;;14.63;72.44;100793.88;4996823;28;20058;-75
2021/05/11 03:58:29;;;;;;;17.67;8.80;;;;;;;14.65;71.85;100793.69;4991357;28;20057;-75
2021/05/11 04:00:55;;;;;;;15.98;7.82;;;;;;;14.63;72.16;100801.78;5002360;28;20049;-75
2021/05/11 04:03:22;;;;;;;18.00;8.38;;;;;;;14.61;72.69;100799.31;4999905;28;20072;-75
2021/05/11 04:05:50;;;;;;;14.57;8.15;;;;;;;14.61;72.28;100798.50;4997625;28;20053;-75
2021/05/11 04:08:35;;;;;;;17.40;8.50;;;;;;;14.61;72.43;100791.41;5002218;28;20038;-74
2021/05/11 04:16:21;;;;;;;11.43;8.15;;;;;;;14.57;72.65;100799.84;4996085;28;20540;-74
2021/05/11 04:18:51;;;;;;;13.25;8.07;;;;;;;14.52;72.94;100795.03;4996151;28;20482;-74
2021/05/11 04:21:19;;;;;;;19.10;8.80;;;;;;;14.57;72.65;100802.47;4994425;28;20053;-74
2021/05/11 04:23:46;;;;;;;13.13;8.37;;;;;;;14.59;72.25;100798.66;4997026;28;20061;-74
2021/05/11 04:26:14;;;;;;;13.88;7.97;;;;;;;14.66;72.37;100805.88;4993212;28;20057;-74
2021/05/11 04:28:41;;;;;;;17.73;8.00;;;;;;;14.68;72.53;100804.75;4988081;28;20054;-74
2021/05/11 04:31:08;;;;;;;15.10;7.63;;;;;;;14.73;71.94;100806.84;4999912;28;20167;-74
2021/05/11 04:33:35;;;;;;;13.77;7.40;;;;;;;14.71;71.96;100814.94;4997940;28;20086;-74
2021/05/11 04:36:03;;;;;;;16.70;7.93;;;;;;;14.71;71.96;100811.47;5001623;28;20152;-74
2021/05/11 04:38:30;;;;;;;20.85;8.32;;;;;;;14.71;72.41;100811.47;4988738;28;20049;-74
2021/05/11 04:40:56;;;;;;;16.10;8.15;;;;;;;14.65;72.39;100810.34;5001784;28;20054;-74
2021/05/11 04:43:25;;;;;;;16.05;8.23;;;;;;;14.66;72.55;100808.53;4998065;28;20054;-74
2021/05/11 04:46:03;;;;;;;12.18;7.15;;;;;;;14.61;72.28;100806.41;5004232;28;20474;-74
2021/05/11 04:48:29;;;;;;;13.93;7.63;;;;;;;14.65;72.44;100809.53;5003081;28;20058;-74
2021/05/11 04:50:57;;;;;;;12.63;7.07;;;;;;;14.70;71.79;100808.03;4993927;28;20069;-74
2021/05/11 04:53:23;;;;;;;14.38;6.40;;;;;;;14.68;70.91;100810.03;4996604;28;20421;-74
2021/05/11 04:55:50;;;;;;;11.13;6.55;;;;;;;14.70;70.83;100813.31;4998749;28;20135;-74
2021/05/11 04:58:17;;;;;;;12.70;5.88;;;;;;;14.77;70.83;100813.44;4996069;28;20094;-75
2021/05/11 05:00:43;;;;;;;12.25;6.38;;;;;;;14.74;70.14;100806.69;4996911;28;20486;-75
2021/05/11 05:03:14;;;;;;;12.10;6.50;;;;;;;14.79;70.37;100803.50;4997127;28;20192;-74
2021/05/11 05:05:41;;;;;;;13.05;6.80;;;;;;;14.83;70.25;100805.63;4995113;28;20050;-75
2021/05/11 05:08:09;;;;;;;15.60;6.55;;;;;;;14.81;70.28;100804.16;4994543;28;20081;-74
2021/05/11 05:10:36;;;;;;;11.80;6.40;;;;;;;14.86;70.29;100812.38;5001138;28;20050;-74
2021/05/11 05:13:03;;;;;;;12.05;6.57;;;;;;;14.82;70.15;100805.81;4997010;28;20057;-74
2021/05/11 05:15:31;;;;;;;12.63;6.75;;;;;;;14.83;70.19;100804.81;5004021;28;20489;-75
2021/05/11 05:17:58;;;;;;;12.73;6.28;;;;;;;14.86;70.67;100804.47;4989685;28;20749;-75
2021/05/11 05:20:25;;;;;;;12.80;6.43;;;;;;;14.96;70.45;100809.53;4994634;28;20132;-75
2021/05/11 05:22:51;;;;;;;12.38;6.70;;;;;;;14.98;70.18;100803.06;4988942;28;20057;-75
2021/05/11 05:25:22;;;;;;;12.40;6.72;;;;;;;15.00;70.23;100806.34;4998434;28;20041;-75
2021/05/11 05:27:56;;;;;;;17.42;6.40;;;;;;;15.05;69.93;100808.44;4999143;28;20062;-74
2021/05/11 05:30:23;;;;;;;16.88;6.22;;;;;;;15.06;70.02;100811.94;4995101;28;20663;-74
2021/05/11 05:32:53;;;;;;;14.38;6.50;;;;;;;15.08;70.39;100813.38;4993247;28;20057;-74
2021/05/11 05:35:19;;;;;;;10.20;5.85;;;;;;;15.07;70.10;100813.56;4995616;28;20077;-74
2021/05/11 05:37:46;;;;;;;14.65;7.05;;;;;;;15.11;70.29;100820.97;4998757;28;20053;-74
2021/05/11 05:40:14;;;;;;;14.32;6.57;;;;;;;15.03;70.65;100826.28;5000725;28;20080;-74
2021/05/11 05:42:40;;;;;;;17.90;6.60;;;;;;;15.07;70.27;100826.78;4992491;28;20123;-74
2021/05/11 05:45:07;;;;;;;11.20;6.13;;;;;;;14.99;70.58;100833.78;4993660;28;20108;-75
2021/05/11 05:47:34;;;;;;;13.88;6.68;;;;;;;15.05;71.00;100821.66;4983083;28;20105;-75
2021/05/11 05:50:05;;;;;;;13.70;7.28;;;;;;;15.08;70.71;100821.31;5001707;28;20060;-75
2021/05/11 05:52:37;;;;;;;9.25;6.30;;;;;;;15.08;70.58;100815.22;4992596;28;20108;-75
2021/05/11 05:55:04;;;;;;;14.45;6.50;;;;;;;15.13;70.86;100815.50;4997386;28;20129;-75
2021/05/11 05:57:31;;;;;;;14.98;6.70;;;;;;;15.15;70.74;100809.06;4999086;28;20100;-75
2021/05/11 05:59:58;;;;;;;11.93;6.05;;;;;;;15.14;70.74;100804.75;4996104;28;20060;-75
2021/05/11 06:02:26;;;;;;;10.38;6.50;;;;;;;15.19;70.90;100798.94;4994252;28;20478;-74
2021/05/11 06:04:52;;;;;;;13.73;7.03;;;;;;;15.30;70.67;100801.16;4996429;28;20490;-75
2021/05/11 06:07:18;;;;;;;12.70;6.68;;;;;;;15.34;71.14;100799.81;4996837;28;20050;-75
2021/05/11 06:09:45;;;;;;;13.30;6.05;;;;;;;15.40;70.49;100807.00;4992514;28;20512;-75
2021/05/11 06:12:19;;;;;;;13.30;6.47;;;;;;;15.45;70.51;100809.16;4996540;28;20053;-75
2021/05/11 06:17:17;;;;;;;11.57;6.60;;;;;;;15.48;71.06;100807.97;4997015;28;20085;-75
2021/05/11 06:19:52;;;;;;;10.88;6.68;;;;;;;15.58;70.83;100821.72;4999744;28;20151;-74
2021/05/11 06:22:19;;;;;;;15.70;6.95;;;;;;;15.63;70.38;100824.69;4991617;28;20108;-74
2021/05/11 06:24:45;;;;;;;11.52;6.28;;;;;;;15.63;70.63;100820.19;5001823;28;20132;-75
2021/05/11 06:27:13;;;;;;;13.23;6.50;;;;;;;15.63;70.30;100822.84;4991954;28;20053;-75
2021/05/11 06:29:44;;;;;;;10.35;6.50;;;;;;;15.60;70.85;100828.50;4987168;28;20506;-74
2021/05/11 06:32:11;;;;;;;11.13;6.53;;;;;;;15.48;71.00;100826.47;4993147;28;20054;-75
2021/05/11 06:34:42;;;;;;;11.52;6.05;;;;;;;15.48;71.34;100831.75;4999660;28;20360;-75
2021/05/11 06:37:08;;;;;;;12.95;6.18;;;;;;;15.46;71.18;100831.09;5001114;28;20552;-75
2021/05/11 06:39:35;;;;;;;15.88;6.28;;;;;;;15.47;71.37;100824.84;4993262;28;20111;-75
2021/05/11 06:42:02;;;;;;;10.75;6.07;;;;;;;15.64;71.05;100823.66;4995390;28;20053;-75
2021/05/11 06:44:49;;;;;;;16.33;6.90;;;;;;;15.77;70.97;100815.16;4987476;28;20133;-76
2021/05/11 06:52:55;;;;;;;12.88;6.40;;;;;;;16.08;69.69;100806.25;4999674;28;20082;-73
2021/05/11 06:55:21;;;;;;;14.90;6.32;;;;;;;16.16;69.13;100811.44;4987414;28;20441;-74
2021/05/11 06:57:48;;;;;;;12.05;6.15;;;;;;;16.14;68.09;100808.16;4996537;28;20057;-74
2021/05/11 07:00:17;;;;;;;11.93;5.90;;;;;;;16.28;68.49;100807.31;4994332;28;20050;-75
2021/05/11 07:02:44;;;;;;;11.60;6.45;;;;;;;16.17;67.93;100799.81;4992548;28;20062;-74
2021/05/11 07:05:11;;;;;;;10.82;5.88;;;;;;;16.25;67.72;100802.41;4995352;28;20046;-74
2021/05/11 07:07:39;;;;;;;10.50;6.45;;;;;;;16.31;67.70;100787.63;4989005;28;20080;-73
2021/05/11 07:10:27;;;;;;;10.10;7.00;;;;;;;16.44;67.91;100790.41;4996876;28;20050;-74
2021/05/11 07:15:54;;;;;;;12.23;6.60;;;;;;;16.67;66.91;100786.78;5001699;28;20558;-74
2021/05/11 07:18:25;;;;;;;14.23;6.65;;;;;;;16.65;65.89;100779.03;4994475;28;20116;-73
2021/05/11 07:20:58;;;;;;;11.80;6.68;;;;;;;16.69;65.50;100779.47;5004144;28;20053;-73
2021/05/11 07:23:27;;;;;;;13.48;7.13;;;;;;;16.77;65.67;100782.00;4995149;28;20049;-73
2021/05/11 07:30:58;;;;;;;11.90;6.22;;;;;;;16.69;63.32;100782.13;4997293;28;20395;-73
2021/05/11 07:33:32;;;;;;;12.27;6.60;;;;;;;16.79;63.97;100787.94;4999742;28;20053;-73
2021/05/11 07:35:58;;;;;;;9.38;6.45;;;;;;;16.74;63.59;100783.22;4999350;28;20442;-73
2021/05/11 07:38:25;;;;;;;10.30;6.82;;;;;;;16.90;63.87;100789.31;4996484;28;20062;-73
2021/05/11 07:40:53;;;;;;;12.02;6.43;;;;;;;16.98;63.92;100790.00;4990099;28;20078;-74
2021/05/11 07:43:21;;;;;;;10.93;6.15;;;;;;;17.13;64.10;100787.28;4996108;28;20084;-73
2021/05/11 08:04:34;;;;;;;11.85;7.43;;;;;;;18.33;61.69;100768.69;4998624;28;20161;-73
2021/05/11 08:15:01;;;;;;;22.50;7.60;;;;;;;18.57;61.56;100780.59;4993610;28;20058;-73
2021/05/11 08:17:31;;;;;;;14.23;7.05;;;;;;;18.60;60.46;100782.84;5000349;28;20446;-73
2021/05/11 08:20:08;;;;;;;16.15;6.85;;;;;;;18.66;60.41;100784.72;4996144;28;20144;-73
2021/05/11 08:28:10;;;;;;;13.57;7.70;;;;;;;18.81;59.57;100787.22;4999195;28;20050;-73
2021/05/11 08:30:38;;;;;;;13.93;7.75;;;;;;;18.77;59.30;100789.44;5000516;28;20057;-73
2021/05/11 08:33:05;;;;;;;16.40;8.98;;;;;;;18.77;59.79;100791.28;4995898;28;20103;-73
2021/05/11 08:35:32;;;;;;;19.85;8.82;;;;;;;18.79;59.59;100794.56;4994065;28;20042;-73
2021/05/11 08:37:58;;;;;;;14.00;7.07;;;;;;;18.68;58.57;100795.97;4996032;28;20057;-73
2021/05/11 08:40:25;;;;;;;14.82;8.00;;;;;;;18.74;58.75;100789.84;5001478;28;20766;-73
2021/05/11 08:42:52;;;;;;;16.23;7.35;;;;;;;18.68;58.63;100793.31;4999810;28;20131;-73
2021/05/11 08:45:19;;;;;;;15.60;7.20;;;;;;;18.71;59.03;100792.09;4998498;28;20133;-74
2021/05/11 08:47:52;;;;;;;10.70;6.43;;;;;;;18.71;59.35;100797.41;4997499;28;20085;-74
2021/05/11 08:50:24;;;;;;;11.35;6.43;;;;;;;18.65;58.87;100795.53;4989965;28;20112;-74
2021/05/11 08:59:57;;;;;;;13.02;7.47;;;;;;;18.69;58.71;100807.41;4992446;28;20171;-75
2021/05/11 09:04:37;;;;;;;12.65;6.93;;;;;;;18.67;58.56;100825.38;4991938;28;20054;-73
2021/05/11 09:23:33;;;;;;;15.05;7.60;;;;;;;18.43;59.08;100830.22;4999956;28;20711;-74
2021/05/11 09:27:24;;;;;;;18.05;7.63;;;;;;;18.46;59.25;100828.97;4994682;28;20117;-74
2021/05/11 09:30:10;;;;;;;17.25;8.25;;;;;;;18.34;58.82;100826.06;4987702;28;20108;-74
2021/05/11 10:36:38;;;;;;;12.00;7.53;;;;;;;20.15;52.66;100774.69;5000604;28;20046;-74
2021/05/11 10:46:53;;;;;;;13.80;6.32;;;;;;;21.03;48.91;100751.84;4998614;28;20081;-74
2021/05/11 10:49:25;;;;;;;10.98;6.13;;;;;;;20.99;47.92;100745.31;4995070;28;20573;-75
2021/05/11 10:52:14;;;;;;;14.35;5.30;;;;;;;20.94;46.50;100751.28;4999063;28;20108;-74
2021/05/11 10:55:11;;;;;;;14.52;5.43;;;;;;;20.89;46.42;100749.25;4989481;28;20633;-74
2021/05/11 11:00:43;;;;;;;9.80;3.25;;;;;;;20.95;45.70;100763.56;4989362;28;20145;-74
2021/05/11 11:03:13;;;;;;;6.13;3.28;;;;;;;20.59;44.37;100758.88;5003153;28;20084;-74
2021/05/11 11:05:42;;;;;;;6.93;2.50;;;;;;;20.61;44.73;100752.31;5002461;28;20056;-74
2021/05/11 11:08:31;;;;;;;8.77;2.90;;;;;;;20.78;44.49;100749.13;4999117;28;20494;-74
2021/05/11 11:11:16;;;;;;;5.53;2.55;;;;;;;20.52;44.27;100753.56;5001561;28;20457;-74
2021/05/11 11:13:46;;;;;;;8.90;2.78;;;;;;;20.26;44.08;100751.88;4996833;28;20093;-74
2021/05/11 11:16:12;;;;;;;8.40;2.83;;;;;;;20.26;43.96;100731.38;5003448;28;20050;-74
2021/05/11 11:18:40;;;;;;;11.20;3.78;;;;;;;20.43;45.20;100739.69;4995291;28;20512;-74
2021/05/11 11:23:56;;;;;;;8.70;4.20;;;;;;;20.71;44.93;100738.53;4990396;28;20171;-74
2021/05/11 11:26:24;;;;;;;10.80;4.40;;;;;;;21.26;45.77;100732.56;5003887;28;20050;-74
2021/05/11 11:29:07;;;;;;;9.20;4.28;;;;;;;21.57;46.00;100733.53;4989252;28;20058;-74
2021/05/11 11:31:37;;;;;;;10.00;5.05;;;;;;;21.51;46.62;100728.03;4998994;28;20062;-74
2021/05/11 11:34:13;;;;;;;15.40;5.90;;;;;;;21.27;45.21;100740.34;4992866;28;20568;-75
2021/05/11 11:36:43;;;;;;;11.93;5.35;;;;;;;21.23;45.74;100744.50;4996591;28;20717;-74
2021/05/11 11:39:31;;;;;;;12.40;4.35;;;;;;;21.18;45.84;100751.53;4997095;28;20137;-75
2021/05/11 11:42:00;;;;;;;12.75;4.53;;;;;;;20.73;44.55;100757.78;4993258;28;20054;-74
2021/05/11 11:44:30;;;;;;;7.82;3.80;;;;;;;20.63;45.02;100752.94;5000539;28;20085;-74
2021/05/11 11:46:57;;;;;;;8.93;3.88;;;;;;;20.42;45.79;100756.69;4997876;28;20536;-73
2021/05/11 11:49:25;;;;;;;8.25;3.33;;;;;;;20.34;45.47;100760.44;4996217;28;20093;-73
2021/05/11 11:52:04;;;;;;;9.75;4.10;;;;;;;20.07;46.06;100756.25;4990722;28;20058;-74
2021/05/11 11:54:35;;;;;;;10.70;4.88;;;;;;;20.00;47.00;100750.16;5003555;28;20053;-74
2021/05/11 11:59:53;;;;;;;11.35;5.72;;;;;;;19.30;48.91;100762.09;4994805;28;20113;-74
2021/05/11 12:02:19;;;;;;;12.52;5.65;;;;;;;19.22;49.06;100756.19;4994105;28;20836;-74
2021/05/11 12:04:47;;;;;;;11.43;4.65;;;;;;;19.24;48.83;100762.13;4991921;28;20050;-74
2021/05/11 12:07:16;;;;;;;10.13;4.97;;;;;;;19.25;49.15;100774.38;5002323;28;20107;-74
2021/05/11 12:09:46;;;;;;;8.90;3.67;;;;;;;19.16;48.63;100771.13;4996551;28;20058;-74
2021/05/11 12:12:14;;;;;;;10.27;5.13;;;;;;;18.98;49.56;100781.53;5001982;28;20069;-75
2021/05/11 12:14:41;;;;;;;13.45;5.40;;;;;;;18.95;49.63;100782.75;4992720;28;20429;-74
2021/05/11 12:17:08;;;;;;;10.82;4.90;;;;;;;18.93;49.68;100790.09;4997977;28;20105;-74
2021/05/11 12:19:36;;;;;;;15.02;5.22;;;;;;;18.94;51.16;100789.91;4999198;28;20054;-74
2021/05/11 12:22:05;;;;;;;11.00;4.40;;;;;;;18.77;49.79;100807.22;4998903;28;20057;-74
2021/05/11 12:24:34;;;;;;;9.82;4.75;;;;;;;18.84;51.87;100801.97;5000829;28;20110;-74
2021/05/11 12:27:19;;;;;;;10.70;5.03;;;;;;;18.81;52.00;100805.81;4994946;28;20050;-74
2021/05/11 12:30:09;;;;;;;11.70;5.63;;;;;;;18.75;54.35;100806.59;5001509;28;20057;-73
2021/05/11 12:32:36;;;;;;;13.65;6.85;;;;;;;18.83;56.33;100817.06;4989560;28;20081;-74
2021/05/11 12:35:04;;;;;;;13.40;6.13;;;;;;;18.89;58.68;100816.25;5004695;28;20060;-73
2021/05/11 12:37:51;;;;;;;15.18;5.05;;;;;;;18.91;57.50;100816.88;4988725;28;20042;-74
2021/05/11 12:42:53;;;;;;;13.00;5.00;;;;;;;18.85;57.26;100812.38;4990971;28;20064;-74
2021/05/11 12:45:20;;;;;;;21.05;7.80;;;;;;;18.84;58.53;100813.41;4989230;28;20058;-73
2021/05/11 12:47:51;;;;;;;24.65;8.52;;;;;;;18.81;60.65;100808.47;4998769;28;20065;-74
2021/05/11 12:50:22;;;;;;;24.60;11.13;;;;;;;18.75;63.33;100811.91;4993839;28;20671;-73
2021/05/11 12:52:55;;;;;;;31.73;12.15;;;;;;;18.63;64.13;100814.34;4998236;28;20395;-73
2021/05/11 12:58:41;;;;;;;14.50;5.63;;;;;;;18.45;62.46;100825.50;4998713;28;20053;-74
2021/05/11 13:01:26;;;;;;;11.05;5.45;;;;;;;18.40;62.59;100832.44;4990409;28;20084;-73
2021/05/11 13:19:49;;;;;;;16.35;8.57;;;;;;;18.24;65.58;100833.59;4997892;28;20489;-73
2021/05/11 13:25:47;;;;;;;13.13;9.20;;;;;;;18.27;65.66;100834.00;4995951;28;20057;-73
2021/05/11 13:31:18;;;;;;;17.02;11.32;;;;;;;18.24;67.40;100831.75;4990186;28;20069;-73
2021/05/11 13:33:56;;;;;;;17.92;12.25;;;;;;;18.16;68.15;100835.38;4999733;28;20104;-74
2021/05/11 13:36:22;;;;;;;17.33;12.48;;;;;;;18.15;68.10;100838.22;4994510;28;20498;-74
2021/05/11 13:38:49;;;;;;;17.13;12.07;;;;;;;18.10;68.30;100835.34;4996624;28;20089;-74
2021/05/11 13:41:15;;;;;;;18.90;10.93;;;;;;;18.04;67.93;100828.19;4990803;28;20061;-73
2021/05/11 13:43:42;;;;;;;15.30;11.40;;;;;;;18.02;68.56;100833.66;4999522;28;20050;-73
2021/05/11 13:46:08;;;;;;;16.90;10.45;;;;;;;17.98;67.70;100829.78;4995216;28;20053;-74
2021/05/11 13:48:39;;;;;;;18.92;11.32;;;;;;;18.02;68.90;100832.84;4999604;28;20076;-73
2021/05/11 13:51:18;;;;;;;17.77;11.60;;;;;;;17.97;68.31;100822.81;4999380;28;20081;-73
2021/05/11 13:53:49;;;;;;;17.42;11.95;;;;;;;17.97;68.73;100823.66;4989126;28;20100;-73
2021/05/11 14:04:31;;;;;;;16.33;10.65;;;;;;;17.77;67.84;100820.81;4991227;28;20057;-73
2021/05/11 14:06:58;;;;;;;15.00;10.38;;;;;;;17.75;67.85;100812.22;4999479;28;20057;-74
2021/05/11 14:09:26;;;;;;;21.30;10.23;;;;;;;17.74;67.54;100799.19;4987780;28;20603;-74
2021/05/11 14:11:53;;;;;;;15.55;10.70;;;;;;;17.66;68.28;100788.69;5000765;28;20144;-73
2021/05/11 14:14:21;;;;;;;13.45;10.60;;;;;;;17.63;67.88;100792.56;4991343;28;20050;-73
2021/05/11 14:16:47;;;;;;;19.40;12.05;;;;;;;17.60;68.63;100808.84;5001115;28;20050;-73
2021/05/11 14:19:18;;;;;;;17.58;11.43;;;;;;;17.59;68.97;100823.94;4997398;28;20054;-73
2021/05/11 14:21:45;;;;;;;15.63;10.55;;;;;;;17.57;68.04;100822.53;4985395;28;20058;-73
2021/05/11 14:24:12;;;;;;;16.17;11.10;;;;;;;17.56;68.90;100826.16;4995638;28;20085;-73
2021/05/11 14:26:39;;;;;;;12.90;9.55;;;;;;;17.51;68.62;100821.44;5001594;28;20050;-73
2021/05/11 14:29:06;;;;;;;15.80;9.52;;;;;;;17.50;68.09;100830.41;5002182;28;20054;-73
2021/05/11 14:31:33;;;;;;;17.30;8.98;;;;;;;17.49;67.80;100814.72;4990051;28;20058;-73
2021/05/11 14:34:00;;;;;;;15.23;8.52;;;;;;;17.46;68.08;100809.78;5004499;28;20077;-73
2021/05/11 14:36:28;;;;;;;14.55;8.10;;;;;;;17.46;67.74;100815.06;5000095;28;20054;-73
2021/05/11 14:38:54;;;;;;;14.48;9.05;;;;;;;17.46;68.25;100823.84;4996979;28;20054;-73
2021/05/11 14:41:21;;;;;;;14.35;11.30;;;;;;;17.43;68.06;100834.03;5005005;28;20057;-73
2021/05/11 14:43:47;;;;;;;16.80;13.85;;;;;;;17.48;69.39;100836.91;4996539;28;20057;-73
2021/05/11 14:46:14;;;;;;;19.15;15.55;;;;;;;17.49;69.28;100830.63;5004241;28;20081;-73
2021/05/11 14:48:43;;;;;;;18.63;15.02;;;;;;;17.45;68.66;100818.75;4993133;28;20127;-73
2021/05/11 14:51:12;;;;;;;20.45;14.50;;;;;;;17.49;68.55;100818.16;4997673;28;20067;-73
2021/05/11 14:53:39;;;;;;;18.75;15.13;;;;;;;17.49;68.43;100831.44;5000893;28;20057;-72
2021/05/11 14:56:08;;;;;;;20.35;15.80;;;;;;;17.42;68.99;100832.38;5002997;28;20058;-72
2021/05/11 14:58:36;;;;;;;17.85;15.18;;;;;;;17.44;68.59;100835.66;5004758;28;20077;-72
2021/05/11 15:01:02;;;;;;;20.10;16.52;;;;;;;17.42;69.17;100838.50;4994665;28;20060;-72
2021/05/11 15:03:29;;;;;;;19.38;16.02;;;;;;;17.43;68.99;100844.66;4998898;28;20089;-73
2021/05/11 15:06:16;;;;;;;21.33;16.10;;;;;;;17.41;68.98;100839.53;4992237;28;20385;-73
2021/05/11 15:08:43;;;;;;;18.30;15.45;;;;;;;17.42;68.93;100843.00;4994263;28;20570;-72
2021/05/11 15:11:09;;;;;;;17.20;15.27;;;;;;;17.36;68.74;100837.44;4993033;28;20494;-73
2021/05/11 15:13:38;;;;;;;17.73;14.88;;;;;;;17.27;68.32;100835.09;5005133;28;20050;-73
2021/05/11 15:16:07;;;;;;;17.17;14.13;;;;;;;17.29;68.34;100833.06;5001895;28;20551;-73
2021/05/11 15:18:34;;;;;;;17.60;14.30;;;;;;;17.29;68.38;100831.25;4992141;28;20061;-73
2021/05/11 15:21:01;;;;;;;18.20;13.40;;;;;;;17.18;68.51;100823.81;5004010;28;20050;-73
2021/05/11 15:23:28;;;;;;;17.08;14.45;;;;;;;17.15;68.71;100816.22;4998145;28;20420;-73
2021/05/11 15:25:55;;;;;;;16.23;14.20;;;;;;;17.16;69.28;100823.19;5001068;28;20050;-73
2021/05/11 15:28:21;;;;;;;17.38;15.23;;;;;;;17.12;69.18;100828.03;4992487;28;20042;-73
2021/05/11 15:30:48;;;;;;;18.70;16.13;;;;;;;17.11;69.11;100820.28;4997008;28;20151;-73
2021/05/11 15:33:14;;;;;;;21.23;18.25;;;;;;;17.08;70.11;100818.81;4999490;28;20509;-73